Time;durP1;ratioP1;P1;durP2;ratioP2;P2;SDS_P1;SDS_P2;PMS_P1;PMS_P2;Temp;Humidity;BMP_temperature;BMP_pressure;BME280_temperature;BME280_humidity;BME280_pressure;Samples;Min_cycle;Max_cycle;Signal;HPM_P1;HPM_P2
2021/07/12 00:03:00;;;;;;;14.38;11.90;;;;;;;23.98;67.24;100488.91;1788832;80;21243;-59
2021/07/12 00:06:06;;;;;;;15.85;11.20;;;;;;;23.97;67.36;100488.64;1788728;80;21192;-58
2021/07/12 00:09:12;;;;;;;15.60;11.80;;;;;;;23.97;67.45;100491.97;1789028;80;21266;-58
2021/07/12 00:12:18;;;;;;;18.73;11.95;;;;;;;23.96;67.74;100484.67;1788885;80;21720;-57
2021/07/12 00:15:27;;;;;;;18.80;12.23;;;;;;;23.96;67.83;100487.47;1789068;80;21231;-57
2021/07/12 00:18:32;;;;;;;19.07;12.45;;;;;;;24.00;67.96;100484.45;1788734;80;21243;-57
2021/07/12 00:21:38;;;;;;;14.73;12.40;;;;;;;24.02;67.88;100480.86;1788551;80;21196;-57
2021/07/12 00:24:45;;;;;;;14.93;12.45;;;;;;;24.00;67.84;100483.91;1789055;80;21196;-58
2021/07/12 00:27:51;;;;;;;17.52;12.53;;;;;;;23.98;67.97;100476.33;1774017;80;21863;-57
2021/07/12 00:30:56;;;;;;;13.30;11.73;;;;;;;23.96;68.14;100481.30;1789057;80;21196;-57
2021/07/12 00:34:04;;;;;;;13.08;11.48;;;;;;;23.97;68.23;100477.45;1788500;80;21176;-57
2021/07/12 00:37:11;;;;;;;14.03;11.73;;;;;;;23.97;68.29;100475.19;1788891;80;21227;-57
2021/07/12 00:40:19;;;;;;;15.93;12.30;;;;;;;23.98;68.40;100477.73;1787902;79;21414;-58
2021/07/12 00:43:25;;;;;;;15.60;12.45;;;;;;;24.01;68.53;100474.95;1788587;80;21366;-58
2021/07/12 00:46:31;;;;;;;17.98;11.97;;;;;;;24.02;68.59;100469.66;1770386;80;21334;-59
2021/07/12 00:49:36;;;;;;;14.07;12.15;;;;;;;24.01;68.60;100471.61;1788683;80;21358;-59
2021/07/12 00:52:42;;;;;;;15.72;12.15;;;;;;;24.01;68.72;100473.01;1788545;80;21362;-58
2021/07/12 00:55:52;;;;;;;14.40;12.30;;;;;;;24.03;68.80;100475.00;1772607;80;21342;-58
2021/07/12 00:58:58;;;;;;;15.38;13.03;;;;;;;24.04;68.82;100471.66;1788632;80;21835;-58
2021/07/12 01:02:04;;;;;;;15.55;11.88;;;;;;;24.06;68.92;100473.62;1788482;80;21386;-58
2021/07/12 01:05:16;;;;;;;15.05;12.73;;;;;;;24.07;68.95;100474.75;1770035;80;21195;-58
2021/07/12 01:08:25;;;;;;;16.45;13.38;;;;;;;24.10;68.90;100475.62;1770266;80;21212;-59
2021/07/12 01:12:02;;;;;;;16.62;13.35;;;;;;;24.10;68.87;100470.61;1738829;81;21211;-57
2021/07/12 01:15:24;;;;;;;16.60;13.93;;;;;;;24.08;69.00;100479.80;1788530;80;21350;-58
2021/07/12 01:18:44;;;;;;;19.48;13.20;;;;;;;24.01;69.24;100482.80;1788496;80;21358;-58
2021/07/12 01:22:37;;;;;;;17.05;13.45;;;;;;;23.97;69.53;100483.04;1788863;79;21393;-57
2021/07/12 01:26:39;;;;;;;17.12;13.30;;;;;;;23.96;69.67;100493.88;1788473;80;21244;-59
2021/07/12 01:30:24;;;;;;;15.45;13.62;;;;;;;23.98;69.95;100490.31;1788386;80;21185;-57
2021/07/12 01:33:46;;;;;;;17.85;13.58;;;;;;;24.02;70.16;100493.44;1788852;79;21866;-58
2021/07/12 01:37:17;;;;;;;15.45;13.50;;;;;;;24.03;70.51;100497.92;1777106;80;21161;-57
2021/07/12 01:40:31;;;;;;;18.27;13.88;;;;;;;24.05;71.47;100497.97;1790111;77;21326;-57
2021/07/12 01:43:50;;;;;;;17.02;13.35;;;;;;;24.02;72.12;100496.23;1789233;80;21738;-58
2021/07/12 01:47:15;;;;;;;19.40;13.98;;;;;;;23.87;72.48;100498.25;1788993;80;21346;-56
2021/07/12 01:50:27;;;;;;;20.48;13.30;;;;;;;23.76;73.24;100482.45;1789001;80;21350;-58
2021/07/12 01:53:55;;;;;;;19.15;15.13;;;;;;;23.75;74.01;100498.94;1789098;80;21697;-56
2021/07/12 01:57:11;;;;;;;17.00;15.13;;;;;;;23.72;74.72;100497.20;1789084;80;21870;-59
2021/07/12 02:00:19;;;;;;;17.60;14.03;;;;;;;23.69;75.13;100493.53;1788651;80;21322;-58
2021/07/12 02:03:26;;;;;;;16.93;14.50;;;;;;;23.63;75.42;100499.05;1788830;80;21330;-57
2021/07/12 02:06:34;;;;;;;16.45;14.33;;;;;;;23.56;75.85;100505.36;1788772;80;21319;-57
2021/07/12 02:09:42;;;;;;;16.70;14.85;;;;;;;23.52;76.33;100513.12;1788829;80;21334;-59
2021/07/12 02:12:48;;;;;;;18.00;14.95;;;;;;;23.52;76.80;100513.12;1788894;80;21215;-57
2021/07/12 02:15:58;;;;;;;17.73;14.55;;;;;;;23.50;77.12;100545.52;1789134;79;21351;-59
2021/07/12 02:19:04;;;;;;;18.70;14.83;;;;;;;23.53;77.53;100549.78;1789084;80;21342;-58
2021/07/12 02:22:15;;;;;;;17.67;15.15;;;;;;;23.57;77.79;100554.59;1774829;80;21811;-57
2021/07/12 02:25:23;;;;;;;17.52;14.47;;;;;;;23.60;77.74;100556.88;1788811;80;21208;-58
2021/07/12 02:28:30;;;;;;;16.73;14.93;;;;;;;23.62;77.56;100556.61;1789000;80;21401;-59
2021/07/12 02:31:36;;;;;;;17.48;14.45;;;;;;;23.61;77.64;100554.91;1789029;80;21377;-59
2021/07/12 02:34:42;;;;;;;33.28;16.75;;;;;;;23.58;77.80;100542.84;1789048;79;21276;-57
2021/07/12 02:37:52;;;;;;;23.52;16.73;;;;;;;23.54;78.43;100540.27;1789034;80;21335;-57
2021/07/12 02:40:59;;;;;;;19.37;14.93;;;;;;;23.51;79.57;100529.07;1790029;76;21253;-57
2021/07/12 02:44:04;;;;;;;19.02;15.90;;;;;;;23.48;80.21;100515.58;1789159;80;21168;-59
2021/07/12 02:47:09;;;;;;;26.42;15.18;;;;;;;23.38;80.30;100522.98;1789074;80;21445;-58
2021/07/12 02:50:16;;;;;;;20.62;15.93;;;;;;;23.29;80.96;100501.59;1789054;80;21646;-57
2021/07/12 02:53:27;;;;;;;17.98;15.98;;;;;;;23.21;81.24;100485.23;1789028;80;21259;-59
2021/07/12 02:56:32;;;;;;;19.50;16.07;;;;;;;23.23;81.99;100491.99;1789026;80;21219;-58
2021/07/12 02:59:40;;;;;;;20.45;17.45;;;;;;;23.25;82.67;100497.63;1788949;80;21856;-58
2021/07/12 07:12:56;;;;;;;14.85;13.00;;;;;;;29.96;60.92;100520.72;1860723;76;22755;-56
2021/07/12 07:16:03;;;;;;;14.75;13.18;;;;;;;29.93;59.50;100519.91;1807264;79;21307;-57
2021/07/12 07:19:10;;;;;;;15.48;13.88;;;;;;;29.88;59.07;100515.72;1755236;81;21204;-56
2021/07/12 07:22:17;;;;;;;14.83;13.35;;;;;;;29.94;59.16;100522.17;1771223;79;21288;-59
2021/07/12 07:25:22;;;;;;;14.50;12.10;;;;;;;30.20;58.13;100528.63;1781063;79;21764;-59
2021/07/12 07:28:28;;;;;;;14.35;12.58;;;;;;;30.33;58.06;100526.52;1770628;81;21886;-57
2021/07/12 07:31:40;;;;;;;14.33;12.82;;;;;;;30.33;58.06;100526.52;1785214;79;21205;-56
2021/07/12 07:34:56;;;;;;;14.78;12.58;;;;;;;30.52;57.19;100524.52;1783665;79;21231;-56
2021/07/12 07:38:03;;;;;;;13.85;12.45;;;;;;;30.56;56.50;100533.25;1797477;80;21225;-56
2021/07/12 07:41:11;;;;;;;17.12;13.60;;;;;;;30.56;56.50;100533.25;1728155;82;21216;-56
2021/07/12 07:44:17;;;;;;;14.60;13.10;;;;;;;30.64;57.35;100529.17;1795715;79;21185;-56
2021/07/12 07:47:23;;;;;;;13.65;12.43;;;;;;;30.78;57.69;100531.29;1728060;82;21571;-57
2021/07/12 07:50:32;;;;;;;17.73;13.75;;;;;;;30.92;56.98;100530.19;1735457;81;21158;-56
2021/07/12 07:53:37;;;;;;;14.78;12.53;;;;;;;31.05;55.47;100527.19;1746657;81;21429;-58
2021/07/12 07:56:44;;;;;;;15.43;13.60;;;;;;;31.11;55.33;100528.78;1692624;84;21198;-58
2021/07/12 07:59:52;;;;;;;14.70;12.85;;;;;;;31.15;54.62;100522.76;1751739;82;21189;-58
2021/07/12 08:03:00;;;;;;;14.43;12.93;;;;;;;31.12;53.96;100521.97;1705846;84;21231;-58
2021/07/12 08:06:10;;;;;;;17.07;13.48;;;;;;;31.01;54.41;100517.63;1714300;83;21338;-59
2021/07/12 08:09:16;;;;;;;20.75;14.05;;;;;;;31.00;55.00;100521.61;1766781;79;21259;-58
2021/07/12 08:12:23;;;;;;;16.55;13.95;;;;;;;31.09;55.49;100526.27;1754714;80;21249;-58
2021/07/12 08:15:30;;;;;;;15.85;12.98;;;;;;;31.23;55.59;100521.50;1778421;80;21710;-58
2021/07/12 08:18:41;;;;;;;15.98;13.90;;;;;;;31.35;55.21;100519.64;1790588;79;21201;-58
2021/07/12 08:21:49;;;;;;;16.23;14.58;;;;;;;31.45;54.74;100519.44;1800347;79;21231;-57
2021/07/12 08:24:54;;;;;;;15.13;13.28;;;;;;;31.49;54.74;100514.26;1769983;81;21602;-59
2021/07/12 08:27:59;;;;;;;19.85;14.58;;;;;;;31.48;54.63;100508.91;1769959;79;21205;-58
2021/07/12 08:31:06;;;;;;;18.23;13.95;;;;;;;31.50;55.15;100506.62;1774518;80;21339;-58
2021/07/12 08:34:23;;;;;;;17.32;15.20;;;;;;;31.54;55.11;100510.52;1789180;79;21395;-58
2021/07/12 08:37:30;;;;;;;15.55;13.98;;;;;;;31.58;56.14;100510.15;1763068;79;21200;-57
2021/07/12 08:40:36;;;;;;;15.53;13.93;;;;;;;31.71;56.23;100519.25;1783922;79;21248;-56
2021/07/12 08:43:42;;;;;;;15.20;13.72;;;;;;;31.78;56.14;100517.69;1776393;79;21233;-56
2021/07/12 08:46:55;;;;;;;16.30;14.45;;;;;;;31.87;56.05;100510.77;1798707;79;21760;-55
2021/07/12 08:50:02;;;;;;;15.98;14.38;;;;;;;31.93;56.13;100508.94;1797769;79;21205;-56
2021/07/12 08:53:07;;;;;;;16.82;13.75;;;;;;;32.00;55.82;100501.41;1791854;80;21189;-55
2021/07/12 08:56:12;;;;;;;13.55;12.25;;;;;;;32.06;55.07;100505.84;1792403;80;21315;-55
2021/07/12 08:59:37;;;;;;;14.25;12.75;;;;;;;32.13;54.61;100502.59;1792772;80;21347;-56
2021/07/12 09:02:43;;;;;;;13.40;12.00;;;;;;;32.18;53.52;100497.64;1792552;79;21859;-55
2021/07/12 09:06:22;;;;;;;13.93;12.35;;;;;;;32.23;52.92;100497.54;1788165;80;21169;-55
2021/07/12 09:09:30;;;;;;;13.15;11.75;;;;;;;32.32;52.67;100486.31;1770558;80;21721;-55
2021/07/12 09:12:57;;;;;;;16.85;12.53;;;;;;;32.36;52.08;100475.44;1796687;79;21833;-55
2021/07/12 09:16:03;;;;;;;14.00;12.55;;;;;;;32.37;51.81;100474.30;1763932;81;21176;-55
2021/07/12 09:19:35;;;;;;;14.13;12.80;;;;;;;32.37;51.91;100464.37;1766084;80;21267;-55
2021/07/12 09:22:43;;;;;;;14.13;12.60;;;;;;;32.25;51.23;100469.73;1766719;80;21780;-56
2021/07/12 09:25:48;;;;;;;14.25;12.82;;;;;;;32.18;51.89;100472.14;1771304;80;21181;-55
2021/07/12 09:28:54;;;;;;;15.75;13.15;;;;;;;32.10;52.09;100472.88;1768891;80;21221;-55
2021/07/12 09:32:03;;;;;;;15.88;13.62;;;;;;;32.01;53.32;100476.20;1768396;80;21690;-55
2021/07/12 09:35:21;;;;;;;15.60;13.43;;;;;;;31.98;54.11;100475.41;1768378;80;21324;-56
2021/07/12 09:38:37;;;;;;;15.88;13.35;;;;;;;31.93;53.48;100468.43;1769147;80;21224;-56
2021/07/12 09:41:44;;;;;;;14.80;13.30;;;;;;;31.89;53.37;100467.36;1768173;80;21264;-56
2021/07/12 09:44:57;;;;;;;15.08;13.50;;;;;;;31.83;52.85;100468.59;1771116;80;21406;-55
2021/07/12 09:48:02;;;;;;;16.02;13.83;;;;;;;31.73;53.44;100461.73;1767519;80;21271;-55
2021/07/12 09:51:09;;;;;;;16.80;14.07;;;;;;;31.62;54.69;100458.25;1781663;80;21382;-56
2021/07/12 09:54:31;;;;;;;18.40;14.78;;;;;;;31.53;54.95;100450.79;1760558;80;21350;-55
2021/07/12 09:57:37;;;;;;;16.20;14.60;;;;;;;31.45;55.55;100461.42;1776919;80;21701;-55
2021/07/12 10:00:56;;;;;;;15.83;14.18;;;;;;;31.34;57.29;100468.41;1767064;81;21244;-54
2021/07/12 10:04:02;;;;;;;16.37;14.78;;;;;;;31.22;57.32;100476.54;1766655;80;21781;-54
2021/07/12 10:07:08;;;;;;;16.82;14.95;;;;;;;31.08;57.95;100479.89;1791451;80;21186;-55
2021/07/12 10:10:17;;;;;;;17.70;15.75;;;;;;;30.91;58.69;100473.94;1798322;80;21177;-55
2021/07/12 10:13:24;;;;;;;15.85;14.18;;;;;;;30.76;59.47;100463.73;1798393;80;21193;-55
2021/07/12 10:16:32;;;;;;;16.00;14.25;;;;;;;30.61;60.00;100460.54;1795263;79;21351;-55
2021/07/12 10:19:38;;;;;;;15.72;14.03;;;;;;;30.48;59.41;100475.98;1797486;79;21197;-55
2021/07/12 10:22:44;;;;;;;19.80;15.25;;;;;;;30.34;59.70;100484.39;1803761;79;21422;-54
2021/07/12 10:25:55;;;;;;;23.30;15.68;;;;;;;30.22;60.07;100468.43;1792366;79;21322;-55
2021/07/12 10:29:05;;;;;;;17.42;15.30;;;;;;;30.12;60.62;100471.37;1770817;80;21350;-54
2021/07/12 10:32:19;;;;;;;22.93;15.45;;;;;;;29.95;61.63;100490.81;1771853;80;21696;-55
2021/07/12 10:35:28;;;;;;;21.65;16.05;;;;;;;29.95;61.63;100490.81;1788106;79;21185;-56
2021/07/12 10:38:46;;;;;;;18.32;15.05;;;;;;;29.87;61.79;100495.70;1780569;79;21272;-55
2021/07/12 10:41:56;;;;;;;16.93;15.20;;;;;;;29.81;62.01;100509.58;1772002;79;21781;-55
2021/07/12 10:45:32;;;;;;;17.48;15.23;;;;;;;29.76;62.97;100499.78;1769270;80;21201;-55
2021/07/12 10:48:44;;;;;;;20.10;14.68;;;;;;;29.72;62.84;100508.56;1769560;80;21227;-54
2021/07/12 10:51:51;;;;;;;20.45;15.10;;;;;;;29.67;63.43;100497.32;1769330;80;21208;-54
2021/07/12 10:55:09;;;;;;;18.60;15.43;;;;;;;29.64;63.99;100485.22;1768730;80;21769;-55
2021/07/12 10:58:40;;;;;;;18.82;14.78;;;;;;;29.60;64.16;100474.80;1769917;80;21213;-55
2021/07/12 11:01:47;;;;;;;;;;;;;;;29.59;64.42;100468.89;1771996;80;22176;-55
2021/07/12 11:04:54;;;;;;;17.25;14.23;;;;;;;29.62;64.77;100466.88;1800179;79;20722;-54
2021/07/12 11:08:00;;;;;;;15.75;14.18;;;;;;;29.64;64.26;100460.34;1779551;79;21205;-55
2021/07/12 11:11:07;;;;;;;16.90;13.70;;;;;;;29.72;64.03;100472.42;1769675;80;21154;-55
2021/07/12 11:14:16;;;;;;;15.13;13.60;;;;;;;29.88;62.96;100464.91;1770612;80;21256;-54
2021/07/12 11:17:24;;;;;;;15.18;13.68;;;;;;;29.88;62.96;100464.91;1769757;80;21185;-56
2021/07/12 11:20:58;;;;;;;20.30;15.08;;;;;;;29.96;62.61;100466.22;1763407;81;21185;-55
2021/07/12 11:24:08;;;;;;;14.98;13.38;;;;;;;29.94;62.82;100473.58;1771168;80;21208;-56
2021/07/12 11:27:14;;;;;;;19.27;13.72;;;;;;;29.84;61.91;100483.60;1788062;79;21386;-56
2021/07/12 11:30:36;;;;;;;17.40;14.50;;;;;;;29.84;61.91;100483.60;1796002;79;21776;-56
2021/07/12 11:33:45;;;;;;;16.67;13.45;;;;;;;29.81;61.53;100489.00;1775254;79;21217;-54
2021/07/12 11:37:11;;;;;;;17.92;12.60;;;;;;;29.78;61.54;100490.42;1769000;80;21348;-55
2021/07/12 11:40:19;;;;;;;13.50;12.10;;;;;;;29.75;61.14;100495.26;1770147;81;21277;-56
2021/07/12 11:43:36;;;;;;;15.65;11.78;;;;;;;29.75;61.14;100495.26;1769709;80;21563;-55
2021/07/12 11:46:44;;;;;;;13.68;11.12;;;;;;;29.65;60.24;100496.80;1770029;80;21327;-57
2021/07/12 11:50:06;;;;;;;20.48;12.00;;;;;;;29.65;60.24;100496.80;1770510;80;21237;-55
2021/07/12 11:53:14;;;;;;;13.65;11.63;;;;;;;29.64;60.56;100500.74;1770269;80;21220;-56
2021/07/12 11:56:27;;;;;;;11.55;10.32;;;;;;;29.60;60.33;100495.41;1778089;79;21399;-55
2021/07/12 11:59:36;;;;;;;;;;;;;;;29.46;59.53;100498.66;1742758;81;21181;-54
2021/07/12 12:02:41;;;;;;;15.48;11.00;;;;;;;29.35;60.14;100504.69;1744865;81;20207;-55
2021/07/12 12:05:50;;;;;;;16.65;12.63;;;;;;;29.32;60.45;100510.92;1751054;81;21169;-56
2021/07/12 12:09:11;;;;;;;21.68;14.78;;;;;;;29.26;60.74;100520.58;1758676;81;21448;-56
2021/07/12 12:12:16;;;;;;;12.93;11.48;;;;;;;29.26;61.31;100529.04;1754379;81;21256;-54
2021/07/12 12:15:31;;;;;;;15.50;11.97;;;;;;;29.30;61.62;100523.91;1748505;81;21201;-56
2021/07/12 12:18:38;;;;;;;15.00;11.95;;;;;;;29.36;61.95;100531.19;1739817;81;21730;-55
2021/07/12 12:21:46;;;;;;;14.78;12.10;;;;;;;29.36;61.38;100516.23;1760834;80;21170;-56
2021/07/12 12:24:56;;;;;;;13.48;12.07;;;;;;;29.40;61.77;100521.58;1742529;80;21754;-55
2021/07/12 12:28:03;;;;;;;16.62;12.73;;;;;;;29.47;61.84;100522.91;1742544;81;21230;-55
2021/07/12 12:31:13;;;;;;;14.95;11.88;;;;;;;29.43;61.38;100512.52;1764498;80;21195;-56
2021/07/12 12:34:19;;;;;;;14.35;12.37;;;;;;;29.34;61.14;100509.48;1763394;80;21920;-55
2021/07/12 12:37:26;;;;;;;14.05;12.13;;;;;;;29.14;61.50;100508.26;1763685;80;21320;-56
2021/07/12 12:40:33;;;;;;;15.70;11.50;;;;;;;29.14;61.50;100508.26;1764144;80;21386;-55
2021/07/12 12:43:38;;;;;;;15.65;12.33;;;;;;;29.03;62.52;100506.62;1761709;79;22028;-55
2021/07/12 12:46:50;;;;;;;15.00;11.75;;;;;;;28.87;62.34;100521.97;1763298;80;21230;-55
2021/07/12 12:49:56;;;;;;;16.57;12.47;;;;;;;28.87;62.34;100521.97;1764801;81;21183;-56
2021/07/12 12:53:14;;;;;;;12.63;11.43;;;;;;;28.81;63.14;100532.42;1758950;81;21201;-55
2021/07/12 12:56:20;;;;;;;15.95;11.93;;;;;;;28.74;63.67;100542.34;1756127;81;21180;-55
2021/07/12 12:59:27;;;;;;;17.15;11.78;;;;;;;28.65;63.13;100533.67;1760634;80;21189;-55
2021/07/12 13:02:36;;;;;;;15.68;10.25;;;;;;;28.58;63.74;100516.80;1765208;80;21357;-55
2021/07/12 13:05:42;;;;;;;10.98;9.88;;;;;;;28.48;63.03;100516.88;1745852;81;22022;-53
2021/07/12 13:09:04;;;;;;;18.60;10.55;;;;;;;28.41;63.01;100519.12;1759526;81;21173;-56
2021/07/12 13:12:17;;;;;;;13.48;10.18;;;;;;;28.28;63.11;100512.70;1736732;81;21293;-56
2021/07/12 13:15:29;;;;;;;12.90;10.05;;;;;;;28.10;63.61;100504.91;1766954;80;21184;-55
2021/07/12 13:18:38;;;;;;;10.80;9.23;;;;;;;27.95;65.22;100493.70;1764293;79;21280;-56
2021/07/12 13:21:58;;;;;;;12.25;8.78;;;;;;;27.78;66.08;100496.25;1760750;81;21197;-56
2021/07/12 13:25:23;;;;;;;12.13;10.03;;;;;;;27.69;65.27;100495.16;1760564;81;21403;-56
2021/07/12 13:28:30;;;;;;;14.47;10.40;;;;;;;27.67;66.66;100483.92;1753315;81;21318;-55
2021/07/12 13:31:39;;;;;;;14.47;11.10;;;;;;;27.68;67.66;100482.78;1751836;81;21165;-55
2021/07/12 13:35:02;;;;;;;13.60;10.75;;;;;;;27.66;67.80;100482.22;1736178;81;21203;-56
2021/07/12 13:38:16;;;;;;;10.60;9.30;;;;;;;27.68;68.49;100488.41;1753889;81;21744;-55
2021/07/12 13:41:21;;;;;;;10.20;9.18;;;;;;;27.73;68.57;100494.84;1695058;83;21243;-56
2021/07/12 13:44:29;;;;;;;12.47;8.75;;;;;;;27.77;68.03;100492.31;1750135;81;21403;-55
2021/07/12 13:47:34;;;;;;;12.45;9.60;;;;;;;27.70;66.62;100479.12;1756806;81;21197;-55
2021/07/12 13:50:42;;;;;;;10.93;9.65;;;;;;;27.64;65.91;100490.94;1698674;83;21206;-56
2021/07/12 13:53:50;;;;;;;11.73;9.80;;;;;;;27.65;65.52;100489.80;1749251;81;21347;-56
2021/07/12 13:56:55;;;;;;;9.48;8.58;;;;;;;27.63;65.39;100489.27;1734400;81;21205;-53
2021/07/12 14:00:01;;;;;;;9.03;8.13;;;;;;;27.64;64.95;100494.31;1690400;85;21821;-55
2021/07/12 14:03:06;;;;;;;14.98;8.40;;;;;;;27.57;63.61;100494.64;1755204;81;21788;-55
2021/07/12 14:06:14;;;;;;;11.90;8.53;;;;;;;27.55;63.34;100492.66;1755201;81;21260;-54
2021/07/12 14:09:21;;;;;;;15.53;10.53;;;;;;;27.55;63.25;100501.10;1675354;85;21246;-55
2021/07/12 14:12:28;;;;;;;12.37;10.10;;;;;;;27.57;64.69;100511.52;1698714;84;21261;-55
2021/07/12 14:15:35;;;;;;;15.40;9.03;;;;;;;27.63;66.45;100523.03;1698970;84;21315;-56
2021/07/12 14:18:44;;;;;;;15.25;10.13;;;;;;;27.69;66.02;100514.00;1704942;81;21190;-55
2021/07/12 14:21:52;;;;;;;12.10;8.43;;;;;;;27.62;64.15;100503.62;1733388;83;21257;-58
2021/07/12 14:24:59;;;;;;;18.82;9.30;;;;;;;27.56;62.38;100508.41;1730452;83;21393;-59
2021/07/12 14:28:07;;;;;;;15.50;9.00;;;;;;;27.53;61.63;100510.94;1722550;82;22047;-59
2021/07/12 14:31:15;;;;;;;15.58;8.95;;;;;;;27.55;61.53;100500.25;1789465;79;21260;-59
2021/07/12 14:34:21;;;;;;;18.80;10.05;;;;;;;27.62;61.90;100494.59;1803215;79;21221;-59
2021/07/12 14:37:26;;;;;;;19.00;9.15;;;;;;;27.74;62.39;100485.30;1803564;79;21232;-59
2021/07/12 14:40:37;;;;;;;21.90;12.23;;;;;;;27.91;62.38;100484.16;1803465;79;21821;-59
2021/07/12 14:43:47;;;;;;;18.12;10.90;;;;;;;28.01;62.15;100489.17;1803378;79;21867;-59
2021/07/12 14:46:56;;;;;;;19.98;10.05;;;;;;;28.11;60.82;100488.28;1803759;79;21398;-59
2021/07/12 14:50:02;;;;;;;10.70;8.28;;;;;;;28.17;60.17;100487.98;1803926;79;21343;-59
2021/07/12 14:53:08;;;;;;;11.18;8.73;;;;;;;28.30;59.63;100485.09;1803118;79;21343;-59
2021/07/12 14:56:13;;;;;;;11.25;8.20;;;;;;;28.48;59.12;100467.57;1803586;79;21334;-58
2021/07/12 14:59:19;;;;;;;11.57;7.83;;;;;;;28.64;57.60;100453.07;1803188;79;21248;-59
2021/07/12 15:02:26;;;;;;;12.93;7.83;;;;;;;28.88;57.33;100445.56;1803486;79;21272;-58
2021/07/12 15:05:33;;;;;;;8.83;7.30;;;;;;;29.28;55.95;100452.84;1802551;79;21342;-60
2021/07/12 15:08:39;;;;;;;8.28;7.47;;;;;;;29.64;54.52;100451.36;1791662;79;21355;-60
2021/07/12 15:11:46;;;;;;;15.30;8.25;;;;;;;29.95;53.62;100455.52;1802575;79;21393;-58
2021/07/12 15:14:53;;;;;;;13.40;9.23;;;;;;;30.21;53.60;100452.64;1799206;79;21169;-58
2021/07/12 15:17:59;;;;;;;8.93;8.03;;;;;;;30.04;55.33;100464.14;1802527;79;21216;-62
2021/07/12 15:21:05;;;;;;;10.60;8.95;;;;;;;29.73;56.67;100467.89;1802379;78;21224;-60
2021/07/12 15:24:12;;;;;;;9.63;8.60;;;;;;;29.54;57.75;100481.64;1803339;79;21422;-61
2021/07/12 15:27:18;;;;;;;12.50;9.18;;;;;;;29.43;58.21;100477.24;1755422;80;21361;-62
2021/07/12 15:30:24;;;;;;;14.70;8.93;;;;;;;29.33;58.72;100478.19;1770428;81;21252;-60
2021/07/12 15:33:31;;;;;;;11.40;8.53;;;;;;;29.29;59.15;100481.31;1770341;80;21276;-62
2021/07/12 15:36:38;;;;;;;9.75;8.23;;;;;;;29.30;59.17;100485.84;1708953;81;21706;-63
2021/07/12 15:39:44;;;;;;;9.73;8.53;;;;;;;29.27;58.38;100481.34;1720882;82;21769;-60
2021/07/12 15:42:53;;;;;;;9.50;8.18;;;;;;;29.23;57.77;100483.36;1734733;81;21255;-65
2021/07/12 15:45:54;;;;;;;9.70;7.97;;;;;;;29.13;56.86;100478.35;1785255;79;21181;-60
2021/07/12 15:49:01;;;;;;;11.50;7.45;;;;;;;29.01;56.34;100470.83;1776885;79;21363;-62
2021/07/12 15:52:07;;;;;;;10.60;7.50;;;;;;;28.95;56.21;100469.19;1776822;79;21394;-59
2021/07/12 15:55:14;;;;;;;8.33;7.45;;;;;;;28.87;56.07;100465.59;1736881;81;21241;-59
2021/07/12 15:58:22;;;;;;;9.73;7.95;;;;;;;28.82;56.22;100462.80;1773639;79;21371;-59
2021/07/12 16:01:29;;;;;;;9.95;8.05;;;;;;;28.79;56.52;100450.71;1776300;79;21868;-60
2021/07/12 16:04:34;;;;;;;9.45;7.45;;;;;;;28.71;56.56;100453.59;1751751;81;21726;-60
2021/07/12 16:07:42;;;;;;;10.68;7.72;;;;;;;28.58;56.87;100454.25;1757178;81;21209;-60
2021/07/12 16:10:47;;;;;;;9.08;7.62;;;;;;;28.50;57.50;100451.20;1739556;81;21847;-59
2021/07/12 16:13:54;;;;;;;9.53;7.33;;;;;;;28.39;57.36;100459.41;1777435;79;21760;-59
2021/07/12 16:17:03;;;;;;;10.13;7.25;;;;;;;28.25;57.56;100459.77;1776910;79;21316;-59
2021/07/12 16:20:11;;;;;;;10.58;7.50;;;;;;;28.15;58.06;100465.45;1803226;79;21343;-59
2021/07/12 16:23:18;;;;;;;10.90;7.72;;;;;;;28.05;58.23;100473.38;1778930;79;21205;-60
2021/07/12 16:26:24;;;;;;;9.68;6.97;;;;;;;27.88;58.75;100474.85;1697965;84;21290;-58
2021/07/12 16:29:33;;;;;;;9.55;6.83;;;;;;;27.73;59.29;100470.11;1754927;81;21221;-60
2021/07/12 16:32:41;;;;;;;12.03;8.13;;;;;;;27.62;59.58;100463.65;1755041;81;21205;-60
2021/07/12 16:35:48;;;;;;;11.50;6.65;;;;;;;27.52;59.92;100466.52;1753351;81;21220;-60
2021/07/12 16:38:54;;;;;;;7.60;6.65;;;;;;;27.46;59.90;100466.80;1710766;82;21247;-59
2021/07/12 16:42:01;;;;;;;14.35;8.48;;;;;;;27.39;60.02;100464.84;1778754;79;21180;-59
2021/07/12 16:45:06;;;;;;;11.73;7.37;;;;;;;27.33;60.06;100473.01;1801145;78;21335;-59
2021/07/12 16:48:14;;;;;;;13.53;8.08;;;;;;;27.27;60.05;100476.96;1778700;79;21208;-60
2021/07/12 16:51:19;;;;;;;13.05;8.85;;;;;;;27.19;59.94;100472.72;1771947;79;21217;-60
2021/07/12 16:54:25;;;;;;;16.07;12.88;;;;;;;27.15;59.96;100479.17;1770816;80;21216;-60
2021/07/12 16:57:33;;;;;;;12.55;9.05;;;;;;;27.08;59.53;100475.81;1771670;80;21414;-59
2021/07/12 17:00:38;;;;;;;11.95;8.10;;;;;;;26.99;59.17;100486.77;1771345;81;21718;-59
2021/07/12 17:03:44;;;;;;;10.65;7.70;;;;;;;26.93;59.34;100488.45;1772068;81;21867;-58
2021/07/12 17:06:53;;;;;;;11.15;6.90;;;;;;;26.85;59.58;100494.63;1789131;79;21193;-60
2021/07/12 17:09:58;;;;;;;10.23;6.03;;;;;;;26.79;60.11;100490.98;1791496;79;21817;-61
2021/07/12 17:13:03;;;;;;;10.25;6.78;;;;;;;26.79;60.27;100499.41;1774462;79;21337;-59
2021/07/12 17:16:08;;;;;;;9.65;6.83;;;;;;;26.81;60.89;100508.41;1772251;79;21216;-58
2021/07/12 17:19:15;;;;;;;9.90;7.10;;;;;;;26.81;61.03;100519.65;1781763;79;21228;-59
2021/07/12 17:22:22;;;;;;;11.03;7.00;;;;;;;26.79;61.52;100534.53;1770304;79;22074;-59
2021/07/12 17:25:27;;;;;;;14.50;7.00;;;;;;;26.79;61.50;100557.56;1780660;79;21186;-59
2021/07/12 17:28:34;;;;;;;9.70;7.00;;;;;;;26.78;61.41;100563.76;1770660;80;21661;-59
2021/07/12 17:31:41;;;;;;;11.30;7.22;;;;;;;26.75;61.38;100567.09;1777161;80;21920;-59
2021/07/12 17:34:52;;;;;;;9.25;8.15;;;;;;;26.71;61.39;100565.13;1774751;80;21212;-59
2021/07/12 17:37:57;;;;;;;11.73;7.80;;;;;;;26.66;61.97;100554.72;1775773;79;21514;-59
2021/07/12 17:41:04;;;;;;;8.58;7.78;;;;;;;26.62;62.32;100552.72;1767226;80;21786;-59
2021/07/12 17:44:09;;;;;;;9.63;8.48;;;;;;;26.56;62.81;100564.48;1768353;80;21356;-60
2021/07/12 17:47:14;;;;;;;10.28;9.18;;;;;;;26.51;63.48;100575.72;1768756;80;21228;-59
2021/07/12 17:50:20;;;;;;;11.88;8.95;;;;;;;26.43;64.02;100581.28;1768460;80;21363;-60
2021/07/12 17:53:26;;;;;;;11.95;9.08;;;;;;;26.38;64.69;100584.65;1763307;80;21155;-60
2021/07/12 17:56:34;;;;;;;10.63;9.53;;;;;;;26.33;64.85;100591.64;1779131;80;21710;-60
2021/07/12 17:59:39;;;;;;;11.00;9.83;;;;;;;26.28;65.59;100600.03;1780874;80;21241;-60
2021/07/12 18:02:47;;;;;;;11.43;9.50;;;;;;;26.19;66.32;100600.28;1778844;79;21382;-58
2021/07/12 18:05:54;;;;;;;10.55;9.45;;;;;;;26.05;67.06;100604.70;1774580;80;21904;-59
2021/07/12 18:09:00;;;;;;;11.65;9.35;;;;;;;25.87;67.47;100618.58;1726155;82;21334;-58
2021/07/12 18:12:08;;;;;;;11.48;8.68;;;;;;;25.71;67.20;100623.78;1711204;83;21228;-59
2021/07/12 18:15:15;;;;;;;10.18;8.48;;;;;;;25.60;67.46;100638.84;1719640;83;21364;-61
2021/07/12 18:18:25;;;;;;;10.50;8.35;;;;;;;25.49;67.87;100648.28;1773836;80;21150;-56
2021/07/12 18:21:30;;;;;;;9.38;7.62;;;;;;;25.39;68.27;100656.59;1782490;80;21425;-58
2021/07/12 18:24:37;;;;;;;13.15;7.40;;;;;;;25.22;68.15;100660.05;1780015;79;21236;-58
2021/07/12 18:27:43;;;;;;;11.57;7.75;;;;;;;25.04;68.29;100664.05;1783908;79;21185;-59
2021/07/12 18:30:54;;;;;;;11.18;6.72;;;;;;;24.90;68.57;100662.78;1782633;79;21410;-58
2021/07/12 18:34:01;;;;;;;10.70;7.50;;;;;;;24.78;68.91;100675.23;1799609;79;21720;-58
2021/07/12 18:37:08;;;;;;;11.50;6.95;;;;;;;24.62;69.38;100684.52;1775555;79;21173;-60
2021/07/12 18:40:16;;;;;;;14.13;6.42;;;;;;;24.48;69.89;100682.64;1788788;79;21374;-59